sensor_id;sensor_type;location;lat;lon;timestamp;temperature;humidity
13198;DHT22;6664;52.514;13.440;2023-04-24T00:00:40;11.20;31.60
13198;DHT22;6664;52.514;13.440;2023-04-24T00:03:29;11.20;32.20
13198;DHT22;6664;52.514;13.440;2023-04-24T00:06:15;11.20;32.40
13198;DHT22;6664;52.514;13.440;2023-04-24T00:09:03;11.10;32.80
13198;DHT22;6664;52.514;13.440;2023-04-24T00:11:48;11.20;32.90
13198;DHT22;6664;52.514;13.440;2023-04-24T00:14:36;11.20;32.90
13198;DHT22;6664;52.514;13.440;2023-04-24T00:17:22;11.10;32.90
13198;DHT22;6664;52.514;13.440;2023-04-24T00:20:08;11.10;33.50
13198;DHT22;6664;52.514;13.440;2023-04-24T00:22:55;11.20;33.90
13198;DHT22;6664;52.514;13.440;2023-04-24T00:25:43;11.10;33.70
13198;DHT22;6664;52.514;13.440;2023-04-24T00:28:29;11.20;34.10
13198;DHT22;6664;52.514;13.440;2023-04-24T00:31:14;11.20;34.00
13198;DHT22;6664;52.514;13.440;2023-04-24T00:34:01;11.10;33.90
13198;DHT22;6664;52.514;13.440;2023-04-24T00:36:48;11.00;34.50
13198;DHT22;6664;52.514;13.440;2023-04-24T00:39:40;11.00;35.10
13198;DHT22;6664;52.514;13.440;2023-04-24T00:42:26;10.90;34.90
13198;DHT22;6664;52.514;13.440;2023-04-24T00:45:12;10.90;35.40
13198;DHT22;6664;52.514;13.440;2023-04-24T00:47:58;10.90;36.10
13198;DHT22;6664;52.514;13.440;2023-04-24T00:50:44;10.80;36.30
13198;DHT22;6664;52.514;13.440;2023-04-24T00:53:30;10.90;36.80
13198;DHT22;6664;52.514;13.440;2023-04-24T00:56:18;10.80;36.70
13198;DHT22;6664;52.514;13.440;2023-04-24T00:59:04;10.70;37.00
13198;DHT22;6664;52.514;13.440;2023-04-24T01:01:50;10.80;37.10
13198;DHT22;6664;52.514;13.440;2023-04-24T01:04:39;10.80;37.50
13198;DHT22;6664;52.514;13.440;2023-04-24T01:07:25;10.90;37.40
13198;DHT22;6664;52.514;13.440;2023-04-24T01:10:14;10.90;37.40
13198;DHT22;6664;52.514;13.440;2023-04-24T01:13:00;10.90;37.30
13198;DHT22;6664;52.514;13.440;2023-04-24T01:15:46;11.00;37.30
13198;DHT22;6664;52.514;13.440;2023-04-24T01:18:32;11.00;37.10
13198;DHT22;6664;52.514;13.440;2023-04-24T01:21:18;11.00;37.10
13198;DHT22;6664;52.514;13.440;2023-04-24T01:24:05;11.00;37.10
13198;DHT22;6664;52.514;13.440;2023-04-24T01:26:51;11.10;37.00
13198;DHT22;6664;52.514;13.440;2023-04-24T01:29:37;11.10;37.00
13198;DHT22;6664;52.514;13.440;2023-04-24T01:32:22;11.20;37.10
13198;DHT22;6664;52.514;13.440;2023-04-24T01:35:09;11.20;37.00
13198;DHT22;6664;52.514;13.440;2023-04-24T01:37:54;11.20;36.80
13198;DHT22;6664;52.514;13.440;2023-04-24T01:40:40;11.20;37.00
13198;DHT22;6664;52.514;13.440;2023-04-24T01:43:25;11.20;36.80
13198;DHT22;6664;52.514;13.440;2023-04-24T01:46:13;11.20;37.10
13198;DHT22;6664;52.514;13.440;2023-04-24T01:49:01;11.20;37.00
13198;DHT22;6664;52.514;13.440;2023-04-24T01:51:47;11.20;37.00
13198;DHT22;6664;52.514;13.440;2023-04-24T01:54:32;11.20;37.10
13198;DHT22;6664;52.514;13.440;2023-04-24T01:57:20;11.20;37.00
13198;DHT22;6664;52.514;13.440;2023-04-24T02:00:06;11.10;37.20
13198;DHT22;6664;52.514;13.440;2023-04-24T02:02:52;11.10;37.50
13198;DHT22;6664;52.514;13.440;2023-04-24T02:05:38;11.10;37.80
13198;DHT22;6664;52.514;13.440;2023-04-24T02:08:24;11.00;38.00
13198;DHT22;6664;52.514;13.440;2023-04-24T02:11:13;11.00;38.40
13198;DHT22;6664;52.514;13.440;2023-04-24T02:14:01;11.10;38.80
13198;DHT22;6664;52.514;13.440;2023-04-24T02:16:47;11.00;38.80
13198;DHT22;6664;52.514;13.440;2023-04-24T02:19:32;11.00;39.10
13198;DHT22;6664;52.514;13.440;2023-04-24T02:22:18;11.00;39.20
13198;DHT22;6664;52.514;13.440;2023-04-24T02:25:03;11.00;39.50
13198;DHT22;6664;52.514;13.440;2023-04-24T02:27:49;11.00;39.60
13198;DHT22;6664;52.514;13.440;2023-04-24T02:30:35;11.10;40.10
13198;DHT22;6664;52.514;13.440;2023-04-24T02:33:21;11.00;40.20
13198;DHT22;6664;52.514;13.440;2023-04-24T02:36:09;11.00;40.40
13198;DHT22;6664;52.514;13.440;2023-04-24T02:38:55;11.00;40.70
13198;DHT22;6664;52.514;13.440;2023-04-24T02:41:40;11.00;40.80
13198;DHT22;6664;52.514;13.440;2023-04-24T02:44:28;11.10;41.00
13198;DHT22;6664;52.514;13.440;2023-04-24T02:47:14;11.20;40.80
13198;DHT22;6664;52.514;13.440;2023-04-24T02:50:02;11.30;40.80
13198;DHT22;6664;52.514;13.440;2023-04-24T02:52:48;11.30;40.50
13198;DHT22;6664;52.514;13.440;2023-04-24T02:55:38;11.40;40.40
13198;DHT22;6664;52.514;13.440;2023-04-24T02:58:24;11.40;40.20
13198;DHT22;6664;52.514;13.440;2023-04-24T03:01:10;11.40;40.60
13198;DHT22;6664;52.514;13.440;2023-04-24T03:03:57;11.40;39.80
13198;DHT22;6664;52.514;13.440;2023-04-24T03:06:43;11.50;39.60
13198;DHT22;6664;52.514;13.440;2023-04-24T03:09:29;11.50;39.20
13198;DHT22;6664;52.514;13.440;2023-04-24T03:12:14;11.60;39.00
13198;DHT22;6664;52.514;13.440;2023-04-24T03:15:03;11.60;39.70
13198;DHT22;6664;52.514;13.440;2023-04-24T03:17:48;11.70;38.70
13198;DHT22;6664;52.514;13.440;2023-04-24T03:20:36;11.70;38.30
13198;DHT22;6664;52.514;13.440;2023-04-24T03:23:22;11.80;38.10
13198;DHT22;6664;52.514;13.440;2023-04-24T03:26:07;11.80;37.80
13198;DHT22;6664;52.514;13.440;2023-04-24T03:28:55;11.90;37.70
13198;DHT22;6664;52.514;13.440;2023-04-24T03:31:41;11.90;37.60
13198;DHT22;6664;52.514;13.440;2023-04-24T03:34:26;12.00;37.40
13198;DHT22;6664;52.514;13.440;2023-04-24T03:37:17;12.00;37.00
13198;DHT22;6664;52.514;13.440;2023-04-24T03:40:03;12.10;37.00
13198;DHT22;6664;52.514;13.440;2023-04-24T03:42:51;12.10;36.70
13198;DHT22;6664;52.514;13.440;2023-04-24T03:45:36;12.10;36.50
13198;DHT22;6664;52.514;13.440;2023-04-24T03:48:21;12.10;36.40
13198;DHT22;6664;52.514;13.440;2023-04-24T03:51:09;12.20;36.20
13198;DHT22;6664;52.514;13.440;2023-04-24T03:53:55;12.20;35.90
13198;DHT22;6664;52.514;13.440;2023-04-24T03:56:40;12.20;35.60
13198;DHT22;6664;52.514;13.440;2023-04-24T03:59:26;12.20;35.40
13198;DHT22;6664;52.514;13.440;2023-04-24T04:02:11;12.20;35.30
13198;DHT22;6664;52.514;13.440;2023-04-24T04:04:57;12.30;35.30
13198;DHT22;6664;52.514;13.440;2023-04-24T04:07:42;12.30;35.20
13198;DHT22;6664;52.514;13.440;2023-04-24T04:10:28;12.30;34.90
13198;DHT22;6664;52.514;13.440;2023-04-24T04:13:13;12.40;34.80
13198;DHT22;6664;52.514;13.440;2023-04-24T04:15:59;12.30;34.60
13198;DHT22;6664;52.514;13.440;2023-04-24T04:18:45;12.30;34.50
13198;DHT22;6664;52.514;13.440;2023-04-24T04:21:30;12.40;34.40
13198;DHT22;6664;52.514;13.440;2023-04-24T04:24:17;12.30;34.20
13198;DHT22;6664;52.514;13.440;2023-04-24T04:27:03;12.40;34.20
13198;DHT22;6664;52.514;13.440;2023-04-24T04:29:49;12.40;34.10
13198;DHT22;6664;52.514;13.440;2023-04-24T04:32:35;12.40;34.20
13198;DHT22;6664;52.514;13.440;2023-04-24T04:35:26;12.40;34.20
13198;DHT22;6664;52.514;13.440;2023-04-24T04:38:11;12.40;34.20
13198;DHT22;6664;52.514;13.440;2023-04-24T04:40:57;12.40;34.20
13198;DHT22;6664;52.514;13.440;2023-04-24T04:43:42;12.40;34.00
13198;DHT22;6664;52.514;13.440;2023-04-24T04:46:28;12.40;34.10
13198;DHT22;6664;52.514;13.440;2023-04-24T04:49:17;12.50;34.00
13198;DHT22;6664;52.514;13.440;2023-04-24T04:52:04;12.50;33.50
13198;DHT22;6664;52.514;13.440;2023-04-24T04:54:50;12.60;33.50
13198;DHT22;6664;52.514;13.440;2023-04-24T04:57:38;12.60;33.00
13198;DHT22;6664;52.514;13.440;2023-04-24T05:00:26;12.60;32.90
13198;DHT22;6664;52.514;13.440;2023-04-24T05:03:20;12.60;32.90
13198;DHT22;6664;52.514;13.440;2023-04-24T05:06:06;12.60;32.90
13198;DHT22;6664;52.514;13.440;2023-04-24T05:08:52;12.50;32.70
13198;DHT22;6664;52.514;13.440;2023-04-24T05:11:44;12.50;32.70
13198;DHT22;6664;52.514;13.440;2023-04-24T05:14:30;12.50;32.70
13198;DHT22;6664;52.514;13.440;2023-04-24T05:17:15;12.50;32.70
13198;DHT22;6664;52.514;13.440;2023-04-24T05:20:03;12.40;32.70
13198;DHT22;6664;52.514;13.440;2023-04-24T05:22:50;12.40;32.70
13198;DHT22;6664;52.514;13.440;2023-04-24T05:25:35;12.40;32.70
13198;DHT22;6664;52.514;13.440;2023-04-24T05:28:22;12.40;32.70
13198;DHT22;6664;52.514;13.440;2023-04-24T05:31:07;12.40;32.70
13198;DHT22;6664;52.514;13.440;2023-04-24T05:33:53;12.40;32.70
13198;DHT22;6664;52.514;13.440;2023-04-24T05:36:41;12.40;32.70
13198;DHT22;6664;52.514;13.440;2023-04-24T05:39:27;12.40;32.70
13198;DHT22;6664;52.514;13.440;2023-04-24T05:42:13;12.40;32.70
13198;DHT22;6664;52.514;13.440;2023-04-24T05:44:59;12.40;32.60
13198;DHT22;6664;52.514;13.440;2023-04-24T05:47:46;12.40;31.90
13198;DHT22;6664;52.514;13.440;2023-04-24T05:50:32;12.40;31.70
13198;DHT22;6664;52.514;13.440;2023-04-24T05:53:26;12.30;31.40
13198;DHT22;6664;52.514;13.440;2023-04-24T05:56:12;12.40;31.30
13198;DHT22;6664;52.514;13.440;2023-04-24T05:58:57;12.40;31.10
13198;DHT22;6664;52.514;13.440;2023-04-24T06:01:42;12.50;30.50
13198;DHT22;6664;52.514;13.440;2023-04-24T06:04:27;12.50;30.20
13198;DHT22;6664;52.514;13.440;2023-04-24T06:07:13;12.60;29.60
13198;DHT22;6664;52.514;13.440;2023-04-24T06:09:59;12.60;29.10
13198;DHT22;6664;52.514;13.440;2023-04-24T06:12:46;12.70;28.70
13198;DHT22;6664;52.514;13.440;2023-04-24T06:15:34;12.70;28.70
13198;DHT22;6664;52.514;13.440;2023-04-24T06:18:20;12.70;28.10
13198;DHT22;6664;52.514;13.440;2023-04-24T06:21:06;12.90;28.20
13198;DHT22;6664;52.514;13.440;2023-04-24T06:23:51;13.00;28.00
13198;DHT22;6664;52.514;13.440;2023-04-24T06:26:37;13.10;27.40
13198;DHT22;6664;52.514;13.440;2023-04-24T06:29:23;13.20;27.00
13198;DHT22;6664;52.514;13.440;2023-04-24T06:32:08;13.30;26.70
13198;DHT22;6664;52.514;13.440;2023-04-24T06:34:54;13.40;25.80
13198;DHT22;6664;52.514;13.440;2023-04-24T06:37:42;13.40;25.60
13198;DHT22;6664;52.514;13.440;2023-04-24T06:40:28;13.50;25.60
13198;DHT22;6664;52.514;13.440;2023-04-24T06:43:13;13.60;25.10
13198;DHT22;6664;52.514;13.440;2023-04-24T06:46:00;13.70;24.50
13198;DHT22;6664;52.514;13.440;2023-04-24T06:48:47;13.90;24.30
13198;DHT22;6664;52.514;13.440;2023-04-24T06:51:33;14.10;23.80
13198;DHT22;6664;52.514;13.440;2023-04-24T06:54:21;14.00;22.70
13198;DHT22;6664;52.514;13.440;2023-04-24T06:57:09;14.00;22.30
13198;DHT22;6664;52.514;13.440;2023-04-24T06:59:55;14.20;22.00
13198;DHT22;6664;52.514;13.440;2023-04-24T07:02:41;14.20;22.00
13198;DHT22;6664;52.514;13.440;2023-04-24T07:05:29;14.40;21.20
13198;DHT22;6664;52.514;13.440;2023-04-24T07:08:15;14.40;20.50
13198;DHT22;6664;52.514;13.440;2023-04-24T07:11:02;14.40;20.10
13198;DHT22;6664;52.514;13.440;2023-04-24T07:13:48;14.40;19.70
13198;DHT22;6664;52.514;13.440;2023-04-24T07:16:33;14.40;19.80
13198;DHT22;6664;52.514;13.440;2023-04-24T07:19:19;14.40;19.30
13198;DHT22;6664;52.514;13.440;2023-04-24T07:22:05;14.40;19.10
13198;DHT22;6664;52.514;13.440;2023-04-24T07:24:52;14.50;18.40
13198;DHT22;6664;52.514;13.440;2023-04-24T07:27:38;14.50;17.60
13198;DHT22;6664;52.514;13.440;2023-04-24T07:30:26;14.80;17.50
13198;DHT22;6664;52.514;13.440;2023-04-24T07:33:14;15.20;15.20
13198;DHT22;6664;52.514;13.440;2023-04-24T07:35:59;15.40;13.60
13198;DHT22;6664;52.514;13.440;2023-04-24T07:38:46;15.60;13.60
13198;DHT22;6664;52.514;13.440;2023-04-24T07:41:32;15.40;12.20
13198;DHT22;6664;52.514;13.440;2023-04-24T07:44:20;15.20;12.20
13198;DHT22;6664;52.514;13.440;2023-04-24T07:47:08;15.00;12.60
13198;DHT22;6664;52.514;13.440;2023-04-24T07:49:56;15.00;12.60
13198;DHT22;6664;52.514;13.440;2023-04-24T07:52:42;14.90;12.30
13198;DHT22;6664;52.514;13.440;2023-04-24T07:55:28;15.00;12.60
13198;DHT22;6664;52.514;13.440;2023-04-24T07:58:14;15.10;12.00
13198;DHT22;6664;52.514;13.440;2023-04-24T08:01:02;15.30;11.10
13198;DHT22;6664;52.514;13.440;2023-04-24T08:03:50;15.50;10.70
13198;DHT22;6664;52.514;13.440;2023-04-24T08:06:37;15.60;9.80
13198;DHT22;6664;52.514;13.440;2023-04-24T08:09:25;15.90;9.50
13198;DHT22;6664;52.514;13.440;2023-04-24T08:12:12;16.00;9.60
13198;DHT22;6664;52.514;13.440;2023-04-24T08:14:57;16.20;8.90
13198;DHT22;6664;52.514;13.440;2023-04-24T08:17:43;16.30;8.20
13198;DHT22;6664;52.514;13.440;2023-04-24T08:20:28;16.40;6.80
13198;DHT22;6664;52.514;13.440;2023-04-24T08:23:14;16.30;6.30
13198;DHT22;6664;52.514;13.440;2023-04-24T08:26:02;16.40;5.70
13198;DHT22;6664;52.514;13.440;2023-04-24T08:28:48;16.40;5.90
13198;DHT22;6664;52.514;13.440;2023-04-24T08:31:33;16.80;5.90
13198;DHT22;6664;52.514;13.440;2023-04-24T08:34:21;17.00;5.10
13198;DHT22;6664;52.514;13.440;2023-04-24T08:37:06;17.30;4.50
13198;DHT22;6664;52.514;13.440;2023-04-24T08:39:52;17.60;3.20
13198;DHT22;6664;52.514;13.440;2023-04-24T08:42:43;17.90;3.20
13198;DHT22;6664;52.514;13.440;2023-04-24T08:45:29;18.20;2.60
13198;DHT22;6664;52.514;13.440;2023-04-24T08:48:15;18.00;3.40
13198;DHT22;6664;52.514;13.440;2023-04-24T08:51:16;17.90;3.50
13198;DHT22;6664;52.514;13.440;2023-04-24T08:54:03;18.20;2.70
13198;DHT22;6664;52.514;13.440;2023-04-24T08:56:50;18.40;3.90
13198;DHT22;6664;52.514;13.440;2023-04-24T08:59:36;18.80;3.70
13198;DHT22;6664;52.514;13.440;2023-04-24T09:02:23;18.90;2.60
13198;DHT22;6664;52.514;13.440;2023-04-24T09:05:10;19.40;1.00
13198;DHT22;6664;52.514;13.440;2023-04-24T09:07:56;19.50;1.00
13198;DHT22;6664;52.514;13.440;2023-04-24T09:10:44;18.80;1.00
13198;DHT22;6664;52.514;13.440;2023-04-24T09:13:30;19.20;1.00
13198;DHT22;6664;52.514;13.440;2023-04-24T09:16:16;19.00;1.00
13198;DHT22;6664;52.514;13.440;2023-04-24T09:19:02;18.90;1.00
13198;DHT22;6664;52.514;13.440;2023-04-24T09:21:48;19.00;1.00
13198;DHT22;6664;52.514;13.440;2023-04-24T09:24:34;19.30;1.30
13198;DHT22;6664;52.514;13.440;2023-04-24T09:27:23;19.50;1.70
13198;DHT22;6664;52.514;13.440;2023-04-24T09:30:09;19.80;1.00
13198;DHT22;6664;52.514;13.440;2023-04-24T09:33:21;19.70;1.00
13198;DHT22;6664;52.514;13.440;2023-04-24T09:36:09;19.70;1.00
13198;DHT22;6664;52.514;13.440;2023-04-24T09:39:02;19.80;1.00
13198;DHT22;6664;52.514;13.440;2023-04-24T09:41:50;19.20;1.00
13198;DHT22;6664;52.514;13.440;2023-04-24T09:44:37;19.20;1.00
13198;DHT22;6664;52.514;13.440;2023-04-24T09:47:22;19.30;1.10
13198;DHT22;6664;52.514;13.440;2023-04-24T09:50:15;19.30;1.40
13198;DHT22;6664;52.514;13.440;2023-04-24T09:53:06;19.60;1.00
13198;DHT22;6664;52.514;13.440;2023-04-24T09:55:55;19.60;1.20
13198;DHT22;6664;52.514;13.440;2023-04-24T09:58:41;19.90;1.00
13198;DHT22;6664;52.514;13.440;2023-04-24T10:01:31;20.10;1.00
13198;DHT22;6664;52.514;13.440;2023-04-24T10:04:26;19.40;1.00
13198;DHT22;6664;52.514;13.440;2023-04-24T10:07:15;19.80;1.00
13198;DHT22;6664;52.514;13.440;2023-04-24T10:10:04;19.70;1.00
13198;DHT22;6664;52.514;13.440;2023-04-24T10:12:51;19.50;1.00
13198;DHT22;6664;52.514;13.440;2023-04-24T10:15:40;19.40;1.00
13198;DHT22;6664;52.514;13.440;2023-04-24T10:18:27;18.80;1.00
13198;DHT22;6664;52.514;13.440;2023-04-24T10:21:12;18.40;2.20
13198;DHT22;6664;52.514;13.440;2023-04-24T10:23:59;18.60;2.40
13198;DHT22;6664;52.514;13.440;2023-04-24T10:26:51;19.60;2.40
13198;DHT22;6664;52.514;13.440;2023-04-24T10:29:39;20.10;1.20
13198;DHT22;6664;52.514;13.440;2023-04-24T10:32:25;20.40;1.00
13198;DHT22;6664;52.514;13.440;2023-04-24T10:35:14;20.20;1.00
13198;DHT22;6664;52.514;13.440;2023-04-24T10:38:08;19.50;1.00
13198;DHT22;6664;52.514;13.440;2023-04-24T10:41:06;20.00;1.00
13198;DHT22;6664;52.514;13.440;2023-04-24T10:46:55;19.60;1.00
13198;DHT22;6664;52.514;13.440;2023-04-24T10:49:42;18.70;1.70
13198;DHT22;6664;52.514;13.440;2023-04-24T10:52:44;18.40;2.50
13198;DHT22;6664;52.514;13.440;2023-04-24T10:55:42;18.40;2.80
13198;DHT22;6664;52.514;13.440;2023-04-24T10:58:53;18.80;2.00
13198;DHT22;6664;52.514;13.440;2023-04-24T11:01:53;19.00;1.60
13198;DHT22;6664;52.514;13.440;2023-04-24T11:04:39;18.60;1.60
13198;DHT22;6664;52.514;13.440;2023-04-24T11:07:25;19.20;1.80
13198;DHT22;6664;52.514;13.440;2023-04-24T11:10:25;19.50;1.00
13198;DHT22;6664;52.514;13.440;2023-04-24T11:13:14;20.30;1.00
13198;DHT22;6664;52.514;13.440;2023-04-24T11:16:21;20.90;1.00
13198;DHT22;6664;52.514;13.440;2023-04-24T11:22:04;21.30;1.00
13198;DHT22;6664;52.514;13.440;2023-04-24T11:25:02;21.30;1.00
13198;DHT22;6664;52.514;13.440;2023-04-24T11:27:49;21.00;1.00
13198;DHT22;6664;52.514;13.440;2023-04-24T11:30:39;21.00;1.00
13198;DHT22;6664;52.514;13.440;2023-04-24T11:33:27;20.80;1.00
13198;DHT22;6664;52.514;13.440;2023-04-24T11:36:13;20.40;1.00
13198;DHT22;6664;52.514;13.440;2023-04-24T11:38:59;19.70;1.00
13198;DHT22;6664;52.514;13.440;2023-04-24T11:41:44;19.30;1.00
13198;DHT22;6664;52.514;13.440;2023-04-24T11:44:31;18.70;2.90
13198;DHT22;6664;52.514;13.440;2023-04-24T11:47:30;19.30;5.50
13198;DHT22;6664;52.514;13.440;2023-04-24T11:50:18;20.10;6.00
13198;DHT22;6664;52.514;13.440;2023-04-24T11:53:04;21.00;5.90
13198;DHT22;6664;52.514;13.440;2023-04-24T11:55:50;21.30;4.90
13198;DHT22;6664;52.514;13.440;2023-04-24T11:58:36;21.70;3.10
13198;DHT22;6664;52.514;13.440;2023-04-24T12:01:24;22.00;1.70
13198;DHT22;6664;52.514;13.440;2023-04-24T12:04:10;22.30;1.00
13198;DHT22;6664;52.514;13.440;2023-04-24T12:07:03;22.30;1.10
13198;DHT22;6664;52.514;13.440;2023-04-24T12:09:58;22.10;1.00
13198;DHT22;6664;52.514;13.440;2023-04-24T12:12:51;21.80;1.00
13198;DHT22;6664;52.514;13.440;2023-04-24T12:15:40;20.90;1.50
13198;DHT22;6664;52.514;13.440;2023-04-24T12:18:26;20.40;1.40
13198;DHT22;6664;52.514;13.440;2023-04-24T12:21:22;20.60;2.20
13198;DHT22;6664;52.514;13.440;2023-04-24T12:24:12;21.00;1.00
13198;DHT22;6664;52.514;13.440;2023-04-24T12:26:58;21.40;1.20
13198;DHT22;6664;52.514;13.440;2023-04-24T12:29:55;22.50;1.00
13198;DHT22;6664;52.514;13.440;2023-04-24T12:32:46;23.30;1.00
13198;DHT22;6664;52.514;13.440;2023-04-24T12:35:33;23.80;1.00
13198;DHT22;6664;52.514;13.440;2023-04-24T12:38:25;24.10;1.00
13198;DHT22;6664;52.514;13.440;2023-04-24T12:41:15;30.10;1.00
13198;DHT22;6664;52.514;13.440;2023-04-24T12:44:00;26.70;1.00
13198;DHT22;6664;52.514;13.440;2023-04-24T12:46:46;25.30;1.00
13198;DHT22;6664;52.514;13.440;2023-04-24T12:49:34;24.30;1.00
13198;DHT22;6664;52.514;13.440;2023-04-24T12:52:19;24.80;1.00
13198;DHT22;6664;52.514;13.440;2023-04-24T12:55:06;23.60;1.00
13198;DHT22;6664;52.514;13.440;2023-04-24T12:57:53;23.00;1.00
13198;DHT22;6664;52.514;13.440;2023-04-24T13:00:40;25.80;1.00
13198;DHT22;6664;52.514;13.440;2023-04-24T13:03:29;23.80;1.00
13198;DHT22;6664;52.514;13.440;2023-04-24T13:06:14;24.10;1.00
13198;DHT22;6664;52.514;13.440;2023-04-24T13:09:00;26.40;1.00
13198;DHT22;6664;52.514;13.440;2023-04-24T13:11:46;26.50;1.00
13198;DHT22;6664;52.514;13.440;2023-04-24T13:14:32;26.60;1.00
13198;DHT22;6664;52.514;13.440;2023-04-24T13:17:17;25.60;1.00
13198;DHT22;6664;52.514;13.440;2023-04-24T13:20:04;30.90;1.00
13198;DHT22;6664;52.514;13.440;2023-04-24T13:22:50;32.70;1.00
13198;DHT22;6664;52.514;13.440;2023-04-24T13:25:36;35.50;1.00
13198;DHT22;6664;52.514;13.440;2023-04-24T13:28:24;34.20;1.00
13198;DHT22;6664;52.514;13.440;2023-04-24T13:31:11;41.00;1.00
13198;DHT22;6664;52.514;13.440;2023-04-24T13:33:56;45.80;1.00
13198;DHT22;6664;52.514;13.440;2023-04-24T13:36:43;45.20;1.00
13198;DHT22;6664;52.514;13.440;2023-04-24T13:39:29;38.80;1.00
13198;DHT22;6664;52.514;13.440;2023-04-24T13:42:14;37.00;1.00
13198;DHT22;6664;52.514;13.440;2023-04-24T13:45:00;36.00;1.00
13198;DHT22;6664;52.514;13.440;2023-04-24T13:48:10;35.20;1.00
13198;DHT22;6664;52.514;13.440;2023-04-24T13:50:56;32.00;1.00
13198;DHT22;6664;52.514;13.440;2023-04-24T13:53:42;37.80;1.00
13198;DHT22;6664;52.514;13.440;2023-04-24T13:56:28;36.70;1.00
13198;DHT22;6664;52.514;13.440;2023-04-24T13:59:13;40.60;1.00
13198;DHT22;6664;52.514;13.440;2023-04-24T14:02:01;38.50;1.00
13198;DHT22;6664;52.514;13.440;2023-04-24T14:04:47;38.10;1.00
13198;DHT22;6664;52.514;13.440;2023-04-24T14:07:33;41.50;1.00
13198;DHT22;6664;52.514;13.440;2023-04-24T14:10:19;39.90;1.00
13198;DHT22;6664;52.514;13.440;2023-04-24T14:13:05;34.70;1.00
13198;DHT22;6664;52.514;13.440;2023-04-24T14:15:51;30.30;1.00
13198;DHT22;6664;52.514;13.440;2023-04-24T14:18:40;33.00;1.00
13198;DHT22;6664;52.514;13.440;2023-04-24T14:21:26;34.70;1.00
13198;DHT22;6664;52.514;13.440;2023-04-24T14:24:11;28.60;1.00
13198;DHT22;6664;52.514;13.440;2023-04-24T14:26:57;27.50;1.00
13198;DHT22;6664;52.514;13.440;2023-04-24T14:29:43;24.40;1.00
13198;DHT22;6664;52.514;13.440;2023-04-24T14:32:30;26.10;1.00
13198;DHT22;6664;52.514;13.440;2023-04-24T14:35:15;29.50;1.00
13198;DHT22;6664;52.514;13.440;2023-04-24T14:38:03;28.60;1.00
13198;DHT22;6664;52.514;13.440;2023-04-24T14:40:49;29.10;1.00
13198;DHT22;6664;52.514;13.440;2023-04-24T14:43:50;27.20;1.00
13198;DHT22;6664;52.514;13.440;2023-04-24T14:46:36;23.40;1.00
13198;DHT22;6664;52.514;13.440;2023-04-24T14:49:23;21.60;1.00
13198;DHT22;6664;52.514;13.440;2023-04-24T14:52:09;21.00;1.00
13198;DHT22;6664;52.514;13.440;2023-04-24T14:54:55;21.40;1.00
13198;DHT22;6664;52.514;13.440;2023-04-24T14:57:41;20.90;1.00
13198;DHT22;6664;52.514;13.440;2023-04-24T15:00:26;20.60;1.00
13198;DHT22;6664;52.514;13.440;2023-04-24T15:03:12;19.50;1.00
13198;DHT22;6664;52.514;13.440;2023-04-24T15:05:58;19.10;1.00
13198;DHT22;6664;52.514;13.440;2023-04-24T15:08:43;19.50;1.00
13198;DHT22;6664;52.514;13.440;2023-04-24T15:11:32;19.60;1.00
13198;DHT22;6664;52.514;13.440;2023-04-24T15:14:18;19.70;1.00
13198;DHT22;6664;52.514;13.440;2023-04-24T15:17:04;19.30;1.00
13198;DHT22;6664;52.514;13.440;2023-04-24T15:19:53;18.80;1.00
13198;DHT22;6664;52.514;13.440;2023-04-24T15:22:39;18.50;1.00
13198;DHT22;6664;52.514;13.440;2023-04-24T15:25:27;19.10;1.00
13198;DHT22;6664;52.514;13.440;2023-04-24T15:28:14;19.00;1.00
13198;DHT22;6664;52.514;13.440;2023-04-24T15:31:01;19.50;1.00
13198;DHT22;6664;52.514;13.440;2023-04-24T15:33:46;20.50;1.00
13198;DHT22;6664;52.514;13.440;2023-04-24T15:36:37;20.80;1.00
13198;DHT22;6664;52.514;13.440;2023-04-24T15:39:23;19.40;1.00
13198;DHT22;6664;52.514;13.440;2023-04-24T15:42:14;18.70;1.00
13198;DHT22;6664;52.514;13.440;2023-04-24T15:45:00;18.70;1.00
13198;DHT22;6664;52.514;13.440;2023-04-24T15:47:52;18.10;1.00
13198;DHT22;6664;52.514;13.440;2023-04-24T15:50:37;17.70;1.00
13198;DHT22;6664;52.514;13.440;2023-04-24T15:53:23;17.50;1.00
13198;DHT22;6664;52.514;13.440;2023-04-24T15:56:08;17.30;1.00
13198;DHT22;6664;52.514;13.440;2023-04-24T15:58:54;17.40;1.00
13198;DHT22;6664;52.514;13.440;2023-04-24T16:01:40;17.60;1.00
13198;DHT22;6664;52.514;13.440;2023-04-24T16:04:25;17.60;1.00
13198;DHT22;6664;52.514;13.440;2023-04-24T16:07:12;17.60;1.00
13198;DHT22;6664;52.514;13.440;2023-04-24T16:10:00;17.10;1.00
13198;DHT22;6664;52.514;13.440;2023-04-24T16:12:45;16.80;1.00
13198;DHT22;6664;52.514;13.440;2023-04-24T16:15:35;16.60;1.00
13198;DHT22;6664;52.514;13.440;2023-04-24T16:18:21;16.50;1.00
13198;DHT22;6664;52.514;13.440;2023-04-24T16:21:09;16.30;1.00
13198;DHT22;6664;52.514;13.440;2023-04-24T16:23:55;16.30;1.00
13198;DHT22;6664;52.514;13.440;2023-04-24T16:26:40;16.30;1.00
13198;DHT22;6664;52.514;13.440;2023-04-24T16:29:29;16.50;1.00
13198;DHT22;6664;52.514;13.440;2023-04-24T16:32:15;16.70;1.00
13198;DHT22;6664;52.514;13.440;2023-04-24T16:35:03;16.70;1.00
13198;DHT22;6664;52.514;13.440;2023-04-24T16:37:48;16.40;1.00
13198;DHT22;6664;52.514;13.440;2023-04-24T16:40:34;16.30;1.00
13198;DHT22;6664;52.514;13.440;2023-04-24T16:43:19;16.20;1.00
13198;DHT22;6664;52.514;13.440;2023-04-24T16:46:05;16.30;1.00
13198;DHT22;6664;52.514;13.440;2023-04-24T16:48:51;16.10;1.00
13198;DHT22;6664;52.514;13.440;2023-04-24T16:51:37;15.90;1.00
13198;DHT22;6664;52.514;13.440;2023-04-24T16:54:23;15.90;1.00
13198;DHT22;6664;52.514;13.440;2023-04-24T16:57:08;15.40;1.00
13198;DHT22;6664;52.514;13.440;2023-04-24T16:59:56;15.00;1.00
13198;DHT22;6664;52.514;13.440;2023-04-24T17:02:44;15.00;1.00
13198;DHT22;6664;52.514;13.440;2023-04-24T17:05:33;14.90;1.00
13198;DHT22;6664;52.514;13.440;2023-04-24T17:08:19;14.70;1.00
13198;DHT22;6664;52.514;13.440;2023-04-24T17:11:04;14.50;1.00
13198;DHT22;6664;52.514;13.440;2023-04-24T17:13:50;14.30;1.00
13198;DHT22;6664;52.514;13.440;2023-04-24T17:16:38;14.20;2.00
13198;DHT22;6664;52.514;13.440;2023-04-24T17:19:26;14.10;2.90
13198;DHT22;6664;52.514;13.440;2023-04-24T17:22:12;14.10;3.30
13198;DHT22;6664;52.514;13.440;2023-04-24T17:24:57;13.80;5.10
13198;DHT22;6664;52.514;13.440;2023-04-24T17:27:46;13.80;5.60
13198;DHT22;6664;52.514;13.440;2023-04-24T17:30:32;13.60;6.30
13198;DHT22;6664;52.514;13.440;2023-04-24T17:33:18;13.40;7.20
13198;DHT22;6664;52.514;13.440;2023-04-24T17:36:04;13.30;7.10
13198;DHT22;6664;52.514;13.440;2023-04-24T17:38:50;13.10;7.30
13198;DHT22;6664;52.514;13.440;2023-04-24T17:41:36;13.10;6.50
13198;DHT22;6664;52.514;13.440;2023-04-24T17:44:24;13.00;6.90
13198;DHT22;6664;52.514;13.440;2023-04-24T17:47:10;13.00;6.90
13198;DHT22;6664;52.514;13.440;2023-04-24T17:49:55;12.80;7.40
13198;DHT22;6664;52.514;13.440;2023-04-24T17:52:41;12.70;7.80